createdAt,value
2018-07-19T00:01:07.035Z,56.85
2018-07-19T00:03:36.481Z,57.83
2018-07-19T00:06:06.172Z,57.68
2018-07-19T00:08:35.588Z,58.00
2018-07-19T00:11:05.178Z,58.27
2018-07-19T00:13:34.701Z,58.02
2018-07-19T00:16:04.228Z,58.08
2018-07-19T00:18:33.641Z,58.41
2018-07-19T00:21:03.035Z,58.03
2018-07-19T00:23:32.518Z,58.90
2018-07-19T00:26:02.137Z,58.68
2018-07-19T00:28:31.294Z,58.90
2018-07-19T00:31:00.683Z,59.65
2018-07-19T00:33:30.069Z,59.19
2018-07-19T00:35:59.490Z,60.21
2018-07-19T00:38:29.069Z,59.76
2018-07-19T00:40:58.530Z,58.89
2018-07-19T00:43:27.957Z,60.54
2018-07-19T00:45:57.577Z,59.36
2018-07-19T00:48:27.001Z,60.01
2018-07-19T00:50:56.608Z,60.03
2018-07-19T00:53:25.988Z,60.69
2018-07-19T00:55:55.747Z,60.68
2018-07-19T00:58:25.601Z,61.11
2018-07-19T01:00:55.150Z,60.62
2018-07-19T01:03:24.547Z,60.58
2018-07-19T01:05:54.001Z,61.46
2018-07-19T01:08:23.464Z,60.96
2018-07-19T01:10:52.915Z,61.11
2018-07-19T01:13:22.353Z,60.84
2018-07-19T01:15:51.692Z,61.73
2018-07-19T01:18:21.049Z,61.34
2018-07-19T01:20:50.497Z,62.57
2018-07-19T01:23:19.952Z,61.98
2018-07-19T01:25:49.373Z,62.13
2018-07-19T01:28:18.955Z,61.79
2018-07-19T01:30:49.306Z,63.25
2018-07-19T01:33:18.740Z,63.14
2018-07-19T01:35:48.139Z,63.80
2018-07-19T01:38:17.657Z,63.64
2018-07-19T01:40:47.834Z,63.72
2018-07-19T01:43:17.363Z,63.71
2018-07-19T01:45:47.803Z,63.32
2018-07-19T01:48:17.914Z,64.03
2018-07-19T01:50:47.496Z,63.88
2018-07-19T01:53:17.028Z,63.67
2018-07-19T01:55:46.502Z,64.01
2018-07-19T01:58:16.023Z,64.39
2018-07-19T02:00:45.498Z,64.04
2018-07-19T02:03:15.054Z,64.35
2018-07-19T02:05:44.512Z,63.59
2018-07-19T02:08:13.911Z,62.58
2018-07-19T02:10:43.319Z,63.28
2018-07-19T02:13:12.844Z,62.24
2018-07-19T02:15:42.322Z,61.65
2018-07-19T02:18:11.753Z,62.78
2018-07-19T02:20:41.169Z,62.40
2018-07-19T02:23:10.694Z,62.50
2018-07-19T02:25:40.108Z,62.22
2018-07-19T02:28:09.590Z,62.42
2018-07-19T02:30:39.076Z,63.76
2018-07-19T02:33:08.479Z,63.19
2018-07-19T02:35:37.905Z,63.69
2018-07-19T02:38:07.374Z,63.49
2018-07-19T02:40:36.545Z,63.93
2018-07-19T02:43:05.977Z,62.79
2018-07-19T02:45:35.337Z,62.01
2018-07-19T02:48:04.785Z,62.01
2018-07-19T02:50:34.169Z,62.28
2018-07-19T02:53:03.546Z,62.67
2018-07-19T02:55:32.953Z,61.88
2018-07-19T02:58:02.434Z,63.54
2018-07-19T03:00:31.823Z,63.96
2018-07-19T03:03:01.214Z,64.56
2018-07-19T03:05:30.646Z,64.71
2018-07-19T03:08:00.173Z,64.16
2018-07-19T03:10:29.652Z,64.74
2018-07-19T03:12:59.028Z,64.64
2018-07-19T03:15:28.481Z,64.59
2018-07-19T03:17:58.497Z,65.32
2018-07-19T03:20:27.958Z,65.52
2018-07-19T03:22:57.388Z,64.83
2018-07-19T03:25:26.908Z,65.73
2018-07-19T03:27:56.414Z,65.81
2018-07-19T03:30:25.903Z,65.88
2018-07-19T03:32:55.366Z,66.13
2018-07-19T03:35:24.920Z,66.83
2018-07-19T03:37:54.468Z,65.79
2018-07-19T03:40:23.855Z,66.31
2018-07-19T03:42:53.382Z,66.85
2018-07-19T03:45:22.789Z,66.42
2018-07-19T03:47:52.236Z,67.84
2018-07-19T03:50:21.622Z,67.64
2018-07-19T03:52:51.038Z,67.76
2018-07-19T03:55:20.199Z,66.72
2018-07-19T03:57:50.668Z,66.87
2018-07-19T04:00:20.559Z,67.56
2018-07-19T04:02:50.153Z,67.80
2018-07-19T04:05:19.786Z,68.25
2018-07-19T04:07:49.152Z,67.59
2018-07-19T04:10:18.589Z,67.31
2018-07-19T04:12:48.976Z,67.95
2018-07-19T04:15:18.638Z,67.51
2018-07-19T04:17:53.387Z,67.65
2018-07-19T04:20:23.794Z,67.98
2018-07-19T04:22:53.665Z,68.08
2018-07-19T04:25:23.636Z,67.79
2018-07-19T04:27:53.881Z,68.12
2018-07-19T04:30:23.310Z,67.10
2018-07-19T04:32:52.706Z,66.55
2018-07-19T04:35:22.274Z,67.15
2018-07-19T04:37:51.813Z,66.93
2018-07-19T04:40:21.320Z,67.14
2018-07-19T04:42:50.752Z,66.04
2018-07-19T04:45:20.235Z,65.81
2018-07-19T04:47:49.825Z,66.13
2018-07-19T04:50:19.357Z,65.69
2018-07-19T04:52:48.932Z,65.77
2018-07-19T04:55:18.413Z,64.24
2018-07-19T04:57:47.985Z,64.89
2018-07-19T05:00:17.525Z,65.85
2018-07-19T05:02:46.671Z,63.27
2018-07-19T05:05:16.127Z,62.38
2018-07-19T05:07:45.587Z,63.42
2018-07-19T05:10:15.339Z,63.07
2018-07-19T05:12:45.121Z,60.33
2018-07-19T05:15:14.540Z,59.61
2018-07-19T05:17:43.942Z,61.38
2018-07-19T05:20:13.522Z,60.01
2018-07-19T05:22:42.903Z,59.56
2018-07-19T05:25:12.294Z,59.12
2018-07-19T05:27:41.684Z,60.92
2018-07-19T05:30:11.206Z,61.19
2018-07-19T05:32:40.604Z,60.73
2018-07-19T05:35:09.970Z,60.42
2018-07-19T05:37:39.387Z,60.08
2018-07-19T05:40:08.832Z,60.26
2018-07-19T05:42:38.249Z,60.02
2018-07-19T05:45:07.959Z,59.69
2018-07-19T05:47:37.493Z,58.81
2018-07-19T05:50:06.977Z,59.49
2018-07-19T05:52:36.464Z,57.14
2018-07-19T05:55:06.020Z,58.02
2018-07-19T05:57:35.449Z,58.56
2018-07-19T06:00:05.434Z,58.39
2018-07-19T06:02:35.686Z,59.18
2018-07-19T06:05:05.299Z,58.86
2018-07-19T06:07:34.664Z,59.08
2018-07-19T06:10:04.457Z,59.33
2018-07-19T06:12:33.836Z,59.27
2018-07-19T06:15:09.544Z,59.94
2018-07-19T06:17:38.965Z,59.09
2018-07-19T06:20:10.559Z,58.19
2018-07-19T06:22:40.117Z,58.67
2018-07-19T06:25:09.771Z,58.58
2018-07-19T06:27:39.162Z,58.36
2018-07-19T06:30:08.709Z,58.83
2018-07-19T06:32:38.166Z,57.90
2018-07-19T06:35:07.826Z,57.03
2018-07-19T06:37:37.255Z,54.97
2018-07-19T06:40:06.845Z,54.97
2018-07-19T06:42:36.337Z,55.25
2018-07-19T06:45:06.226Z,57.53
2018-07-19T06:47:35.998Z,58.04
2018-07-19T06:50:05.528Z,54.28
2018-07-19T06:52:34.937Z,56.74
2018-07-19T06:55:04.441Z,56.67
2018-07-19T06:57:34.616Z,55.64
2018-07-19T07:00:05.049Z,55.38
2018-07-19T07:02:34.477Z,55.39
2018-07-19T07:05:03.904Z,55.57
2018-07-19T07:07:33.257Z,54.77
2018-07-19T07:10:02.638Z,56.84
2018-07-19T07:12:32.074Z,55.05
2018-07-19T07:15:01.505Z,54.76
2018-07-19T07:17:30.819Z,55.68
2018-07-19T07:20:00.354Z,54.73
2018-07-19T07:22:29.800Z,53.89
2018-07-19T07:24:59.293Z,53.78
2018-07-19T07:27:28.776Z,53.63
2018-07-19T07:29:58.415Z,55.52
2018-07-19T07:32:28.035Z,53.77
2018-07-19T07:34:57.666Z,54.27
2018-07-19T07:37:27.117Z,54.90
2018-07-19T07:39:56.699Z,56.22
2018-07-19T07:44:54.670Z,54.86
2018-07-19T07:47:24.141Z,55.65
2018-07-19T07:49:53.882Z,54.97
2018-07-19T07:52:23.292Z,53.12
2018-07-19T07:54:52.767Z,53.15
2018-07-19T07:57:22.512Z,54.05
2018-07-19T07:59:51.994Z,53.11
2018-07-19T08:02:21.778Z,52.59
2018-07-19T08:04:51.188Z,52.23
2018-07-19T08:07:20.574Z,51.39
2018-07-19T08:09:51.149Z,51.40
2018-07-19T08:12:20.597Z,50.93
2018-07-19T08:14:51.055Z,51.30
2018-07-19T08:17:20.474Z,52.89
2018-07-19T08:19:49.877Z,52.57
2018-07-19T08:22:19.787Z,51.83
2018-07-19T08:24:49.191Z,48.58
2018-07-19T08:27:18.947Z,48.53
2018-07-19T08:29:49.076Z,50.22
2018-07-19T08:32:18.476Z,50.41
2018-07-19T08:34:48.626Z,51.16
2018-07-19T08:37:18.423Z,50.48
2018-07-19T08:39:48.095Z,50.18
2018-07-19T08:42:17.510Z,49.79
2018-07-19T08:44:47.415Z,46.57
2018-07-19T08:47:16.821Z,46.83
2018-07-19T08:49:47.639Z,47.97
2018-07-19T08:52:18.352Z,47.05
2018-07-19T08:54:47.936Z,46.85
2018-07-19T08:57:17.343Z,46.42
2018-07-19T08:59:46.694Z,46.29
2018-07-19T09:02:16.175Z,48.57
2018-07-19T09:04:45.777Z,46.19
2018-07-19T09:07:17.557Z,46.88
2018-07-19T09:09:47.630Z,47.71
2018-07-19T09:12:17.269Z,46.20
2018-07-19T09:14:46.671Z,45.27
2018-07-19T09:17:16.124Z,46.37
2018-07-19T09:19:46.303Z,45.80
2018-07-19T09:22:16.001Z,45.89
2018-07-19T09:24:45.475Z,45.68
2018-07-19T09:27:15.391Z,45.41
2018-07-19T09:29:44.780Z,48.43
2018-07-19T09:32:14.322Z,45.70
2018-07-19T09:34:43.718Z,46.15
2018-07-19T09:37:13.229Z,46.45
2018-07-19T09:39:42.644Z,47.35
2018-07-19T09:42:13.075Z,46.55
2018-07-19T09:44:42.479Z,43.78
2018-07-19T09:47:12.075Z,44.63
2018-07-19T09:49:41.513Z,43.78
2018-07-19T09:52:10.939Z,44.63
2018-07-19T09:54:55.760Z,44.43
2018-07-19T09:57:25.335Z,41.89
2018-07-19T09:59:54.773Z,39.26
2018-07-19T10:02:24.555Z,40.60
2018-07-19T10:04:53.995Z,39.91
2018-07-19T10:07:23.419Z,38.75
2018-07-19T10:09:52.830Z,41.15
2018-07-19T10:12:22.218Z,42.89
2018-07-19T10:14:51.683Z,42.35
2018-07-19T10:17:21.099Z,40.76
2018-07-19T10:19:50.517Z,40.05
2018-07-19T10:22:20.245Z,41.18
2018-07-19T10:24:50.667Z,38.80
2018-07-19T10:27:20.107Z,41.58
2018-07-19T10:29:49.583Z,40.35
2018-07-19T10:32:19.877Z,41.23
2018-07-19T10:34:49.300Z,39.92
2018-07-19T10:37:18.781Z,40.80
2018-07-19T10:39:48.225Z,44.46
2018-07-19T10:42:17.758Z,41.79
2018-07-19T10:44:47.135Z,43.51
2018-07-19T10:47:16.657Z,43.54
2018-07-19T10:49:46.282Z,37.48
2018-07-19T10:52:15.566Z,40.35
2018-07-19T10:54:45.026Z,40.36
2018-07-19T10:57:14.194Z,38.28
2018-07-19T10:59:43.641Z,40.84
2018-07-19T11:02:13.130Z,39.42
2018-07-19T11:04:42.838Z,41.15
2018-07-19T11:07:12.778Z,40.77
2018-07-19T11:09:42.236Z,38.09
2018-07-19T11:12:11.617Z,40.22
2018-07-19T11:14:41.021Z,39.16
2018-07-19T11:17:10.441Z,40.49
2018-07-19T11:19:39.873Z,39.31
2018-07-19T11:22:09.241Z,39.30
2018-07-19T11:24:39.501Z,37.68
2018-07-19T11:27:08.897Z,39.06
2018-07-19T11:29:38.318Z,39.28
2018-07-19T11:32:07.793Z,38.44
2018-07-19T11:34:37.205Z,38.97
2018-07-19T11:37:06.634Z,41.28
2018-07-19T11:39:36.216Z,37.90
2018-07-19T11:42:05.905Z,35.81
2018-07-19T11:44:35.279Z,35.91
2018-07-19T11:47:04.661Z,38.60
2018-07-19T11:49:34.068Z,38.55
2018-07-19T11:52:03.438Z,38.34
2018-07-19T11:54:33.051Z,37.81
2018-07-19T11:57:02.553Z,38.40
2018-07-19T11:59:31.926Z,37.14
2018-07-19T12:02:01.860Z,38.74
2018-07-19T12:04:31.293Z,34.90
2018-07-19T12:07:00.808Z,34.87
2018-07-19T12:09:30.232Z,37.47
2018-07-19T12:11:59.758Z,38.61
2018-07-19T12:14:29.194Z,35.24
2018-07-19T12:16:58.642Z,37.76
2018-07-19T12:19:28.022Z,36.21
2018-07-19T12:21:57.433Z,39.35
2018-07-19T12:24:26.973Z,37.25
2018-07-19T12:26:56.451Z,36.46
2018-07-19T12:29:25.953Z,34.21
2018-07-19T12:31:55.420Z,38.04
2018-07-19T12:34:24.843Z,36.43
2018-07-19T12:36:54.280Z,34.36
2018-07-19T12:39:23.674Z,36.31
2018-07-19T12:41:53.070Z,38.31
2018-07-19T12:44:23.063Z,33.65
2018-07-19T12:46:52.260Z,35.89
2018-07-19T12:49:21.657Z,35.09
2018-07-19T12:51:51.090Z,34.73
2018-07-19T12:54:20.494Z,34.08
2018-07-19T12:56:49.893Z,33.71
2018-07-19T12:59:19.297Z,32.09
2018-07-19T13:01:48.750Z,31.75
2018-07-19T13:04:18.176Z,34.41
2018-07-19T13:06:47.705Z,35.59
2018-07-19T13:09:17.139Z,34.59
2018-07-19T13:11:46.575Z,35.47
2018-07-19T13:14:16.067Z,34.19
2018-07-19T13:16:45.466Z,37.48
2018-07-19T13:19:14.900Z,37.73
2018-07-19T13:21:44.413Z,33.99
2018-07-19T13:24:13.886Z,34.90
2018-07-19T13:26:43.240Z,35.95
2018-07-19T13:29:13.193Z,34.35
2018-07-19T13:31:42.697Z,35.41
2018-07-19T13:34:13.564Z,35.11
2018-07-19T13:36:43.190Z,33.14
2018-07-19T13:39:12.664Z,32.94
2018-07-19T13:41:42.110Z,33.40
2018-07-19T13:44:12.061Z,35.38
2018-07-19T13:46:41.504Z,33.89
2018-07-19T13:49:10.914Z,33.27
2018-07-19T13:51:40.348Z,34.58
2018-07-19T13:54:27.732Z,33.80
2018-07-19T13:56:57.167Z,33.35
2018-07-19T13:59:27.425Z,36.73
2018-07-19T14:01:57.546Z,32.19
2018-07-19T14:04:27.178Z,30.71
2018-07-19T14:06:56.718Z,32.54
2018-07-19T14:09:26.306Z,33.30
2018-07-19T14:11:55.782Z,34.91
2018-07-19T14:14:25.198Z,33.44
2018-07-19T14:16:54.665Z,34.59
2018-07-19T14:19:24.166Z,35.74
2018-07-19T14:21:53.865Z,33.49
2018-07-19T14:24:23.246Z,32.72
2018-07-19T14:26:52.701Z,36.55
2018-07-19T14:29:22.091Z,35.36
2018-07-19T14:31:51.771Z,33.60
2018-07-19T14:34:21.665Z,33.53
2018-07-19T14:36:50.887Z,32.33
2018-07-19T14:39:20.338Z,31.22
2018-07-19T14:41:50.028Z,30.75
2018-07-19T14:44:19.569Z,30.62
2018-07-19T14:46:48.993Z,32.23
2018-07-19T14:49:18.434Z,31.46
2018-07-19T14:51:47.837Z,32.81
2018-07-19T14:54:17.290Z,32.66
2018-07-19T14:56:46.883Z,33.40
2018-07-19T14:59:16.302Z,34.00
2018-07-19T15:01:45.870Z,34.63
2018-07-19T15:04:15.346Z,36.31
2018-07-19T15:06:44.713Z,34.02
2018-07-19T15:09:14.130Z,33.44
2018-07-19T15:11:43.651Z,33.36
2018-07-19T15:14:13.107Z,32.35
2018-07-19T15:16:43.029Z,33.44
2018-07-19T15:19:12.453Z,36.49
2018-07-19T15:21:41.875Z,35.11
2018-07-19T15:24:11.336Z,32.64
2018-07-19T15:26:40.697Z,34.89
2018-07-19T15:29:10.099Z,34.88
2018-07-19T15:31:41.098Z,35.60
2018-07-19T15:34:10.509Z,31.80
2018-07-19T15:36:39.944Z,35.16
2018-07-19T15:39:10.173Z,33.82
2018-07-19T15:41:39.898Z,33.96
2018-07-19T15:44:09.383Z,33.26
2018-07-19T15:46:38.827Z,33.29
2018-07-19T15:49:08.982Z,34.71
2018-07-19T15:51:38.484Z,34.40
2018-07-19T15:54:08.181Z,35.20
2018-07-19T15:56:38.117Z,34.70
2018-07-19T15:59:07.629Z,33.94
2018-07-19T16:01:37.257Z,34.17
2018-07-19T16:04:06.756Z,33.95
2018-07-19T16:06:36.163Z,33.62
2018-07-19T16:09:12.366Z,32.81
2018-07-19T16:11:41.876Z,35.13
2018-07-19T16:14:11.294Z,34.69
2018-07-19T16:16:40.718Z,33.49
2018-07-19T16:19:10.178Z,33.79
2018-07-19T16:21:39.669Z,33.13
2018-07-19T16:24:09.150Z,33.25
2018-07-19T16:26:38.617Z,35.25
2018-07-19T16:29:08.020Z,35.40
2018-07-19T16:31:37.587Z,34.84
2018-07-19T16:34:07.087Z,34.67
2018-07-19T16:36:36.518Z,33.42
2018-07-19T16:39:09.342Z,33.70
2018-07-19T16:41:39.409Z,32.93
2018-07-19T16:44:09.268Z,33.47
2018-07-19T16:46:38.690Z,32.27
2018-07-19T16:49:08.151Z,32.75
2018-07-19T16:51:37.894Z,33.82
2018-07-19T16:54:07.531Z,34.31
2018-07-19T16:56:37.165Z,33.92
2018-07-19T16:59:06.664Z,32.71
2018-07-19T17:01:36.153Z,34.47
2018-07-19T17:04:05.850Z,33.80
2018-07-19T17:06:35.382Z,34.39
2018-07-19T17:09:07.983Z,34.21
2018-07-19T17:11:39.410Z,33.73
2018-07-19T17:14:08.902Z,33.39
2018-07-19T17:16:38.392Z,33.75
2018-07-19T17:19:07.912Z,33.47
2018-07-19T17:21:38.505Z,33.89
2018-07-19T17:24:08.010Z,35.68
2018-07-19T17:26:37.590Z,36.09
2018-07-19T17:29:18.751Z,37.25
2018-07-19T17:31:49.518Z,36.96
2018-07-19T17:34:19.025Z,36.82
2018-07-19T17:36:48.424Z,36.13
2018-07-19T17:39:17.921Z,36.54
2018-07-19T17:41:47.348Z,35.06
2018-07-19T17:44:16.976Z,36.42
2018-07-19T17:46:47.593Z,37.30
2018-07-19T17:49:17.522Z,37.07
2018-07-19T17:51:47.263Z,36.34
2018-07-19T17:54:16.690Z,36.66
2018-07-19T17:56:46.150Z,36.73
2018-07-19T17:59:15.569Z,36.66
2018-07-19T18:01:45.152Z,37.75
2018-07-19T18:04:14.973Z,39.23
2018-07-19T18:06:45.613Z,38.45
2018-07-19T18:09:15.180Z,38.76
2018-07-19T18:11:44.632Z,38.53
2018-07-19T18:14:15.160Z,38.66
2018-07-19T18:16:44.533Z,40.70
2018-07-19T18:19:14.118Z,40.55
2018-07-19T18:21:43.724Z,39.28
2018-07-19T18:24:13.321Z,39.69
2018-07-19T18:26:42.811Z,38.65
2018-07-19T18:29:12.326Z,38.82
2018-07-19T18:31:42.850Z,39.19
2018-07-19T18:34:12.436Z,38.62
2018-07-19T18:36:41.898Z,41.57
2018-07-19T18:39:12.735Z,40.40
2018-07-19T18:41:42.340Z,40.63
2018-07-19T18:44:16.057Z,40.76
2018-07-19T18:46:45.653Z,42.96
2018-07-19T18:49:15.075Z,44.03
2018-07-19T18:51:45.465Z,43.72
2018-07-19T18:54:14.916Z,43.12
2018-07-19T18:56:48.286Z,45.00
2018-07-19T18:59:17.746Z,44.47
2018-07-19T19:01:47.322Z,44.60
2018-07-19T19:04:16.714Z,45.33
2018-07-19T19:06:46.160Z,44.64
2018-07-19T19:09:15.596Z,45.42
2018-07-19T19:11:44.993Z,45.45
2018-07-19T19:14:14.401Z,45.24
2018-07-19T19:16:43.817Z,45.74
2018-07-19T19:19:13.254Z,46.70
2018-07-19T19:21:42.622Z,45.80
2018-07-19T19:24:12.035Z,45.40
2018-07-19T19:26:41.562Z,46.43
2018-07-19T19:29:10.992Z,47.34
2018-07-19T19:31:40.413Z,47.50
2018-07-19T19:34:10.508Z,46.51
2018-07-19T19:36:39.632Z,46.32
2018-07-19T19:39:10.956Z,46.12
2018-07-19T19:41:40.492Z,47.20
2018-07-19T19:44:10.751Z,46.60
2018-07-19T19:46:40.244Z,47.42
2018-07-19T19:49:09.695Z,46.42
2018-07-19T19:51:39.084Z,47.60
2018-07-19T19:54:09.327Z,47.86
2018-07-19T19:56:38.749Z,48.30
2018-07-19T19:59:08.261Z,47.62
2018-07-19T20:01:37.622Z,47.49
2018-07-19T20:04:07.615Z,48.02
2018-07-19T20:06:37.222Z,49.26
2018-07-19T20:09:10.062Z,48.37
2018-07-19T20:11:41.367Z,48.26
2018-07-19T20:14:10.798Z,48.47
2018-07-19T20:16:40.216Z,48.42
2018-07-19T20:19:09.647Z,48.98
2018-07-19T20:21:39.085Z,49.35
2018-07-19T20:24:08.638Z,49.19
2018-07-19T20:26:38.073Z,49.44
2018-07-19T20:29:07.700Z,50.41
2018-07-19T20:31:37.237Z,50.45
2018-07-19T20:34:06.931Z,49.99
2018-07-19T20:36:36.402Z,51.30
2018-07-19T20:39:07.785Z,50.26
2018-07-19T20:41:37.198Z,50.82
2018-07-19T20:44:07.018Z,50.04
2018-07-19T20:46:36.452Z,51.21
2018-07-19T20:49:05.998Z,50.61
2018-07-19T20:51:35.422Z,51.10
2018-07-19T20:54:04.963Z,50.53
2018-07-19T20:56:35.556Z,50.45
2018-07-19T20:59:04.996Z,51.05
2018-07-19T21:01:34.467Z,50.94
2018-07-19T21:04:03.986Z,51.16
2018-07-19T21:06:33.398Z,51.31
2018-07-19T21:09:02.911Z,51.48
2018-07-19T21:11:32.375Z,51.42
2018-07-19T21:14:01.790Z,50.53
2018-07-19T21:16:31.187Z,50.68
2018-07-19T21:19:00.612Z,50.61
2018-07-19T21:21:30.080Z,50.52
2018-07-19T21:23:59.534Z,52.44
2018-07-19T21:26:29.001Z,51.85
2018-07-19T21:28:58.401Z,52.12
2018-07-19T21:31:27.984Z,51.75
2018-07-19T21:33:57.618Z,52.06
2018-07-19T21:36:27.276Z,51.74
2018-07-19T21:38:56.856Z,47.82
2018-07-19T21:41:26.359Z,51.62
2018-07-19T21:43:55.975Z,50.25
2018-07-19T21:46:25.553Z,49.83
2018-07-19T21:48:54.976Z,49.29
2018-07-19T21:51:24.383Z,47.18
2018-07-19T21:53:53.830Z,48.32
2018-07-19T21:56:23.303Z,50.21
2018-07-19T21:58:52.901Z,48.37
2018-07-19T22:01:22.389Z,50.43
2018-07-19T22:03:51.965Z,49.67
2018-07-19T22:06:21.376Z,50.78
2018-07-19T22:08:50.761Z,50.92
2018-07-19T22:11:20.486Z,51.77
2018-07-19T22:13:49.934Z,51.74
2018-07-19T22:16:19.341Z,52.28
2018-07-19T22:18:48.788Z,51.70
2018-07-19T22:21:17.961Z,50.77
2018-07-19T22:23:47.383Z,51.88
2018-07-19T22:26:16.808Z,52.22
2018-07-19T22:28:46.210Z,53.37
2018-07-19T22:31:15.619Z,52.90
2018-07-19T22:33:51.497Z,53.33
2018-07-19T22:36:20.883Z,52.86
2018-07-19T22:38:50.373Z,52.52
2018-07-19T22:41:19.777Z,53.09
2018-07-19T22:43:49.177Z,52.65
2018-07-19T22:46:18.610Z,53.17
2018-07-19T22:48:48.269Z,53.41
2018-07-19T22:51:17.794Z,53.22
2018-07-19T22:53:47.226Z,53.77
2018-07-19T22:56:16.648Z,53.18
2018-07-19T22:58:46.075Z,53.76
2018-07-19T23:01:16.099Z,53.29
2018-07-19T23:03:45.494Z,53.42
2018-07-19T23:06:14.851Z,53.63
2018-07-19T23:08:44.239Z,52.37
2018-07-19T23:11:13.674Z,52.79
2018-07-19T23:13:43.110Z,51.38
2018-07-19T23:16:12.566Z,53.13
2018-07-19T23:18:41.946Z,52.21
2018-07-19T23:21:11.332Z,51.97
2018-07-19T23:23:40.704Z,53.19
2018-07-19T23:26:11.221Z,52.89
2018-07-19T23:28:40.677Z,51.82
2018-07-19T23:31:10.045Z,50.89
2018-07-19T23:33:39.441Z,50.57
2018-07-19T23:36:17.070Z,51.05
2018-07-19T23:38:52.162Z,50.32
2018-07-19T23:41:26.588Z,51.04
2018-07-19T23:44:00.841Z,50.57
2018-07-19T23:46:49.537Z,51.97
2018-07-19T23:49:18.979Z,51.99
2018-07-19T23:51:48.432Z,51.53
2018-07-19T23:54:17.833Z,51.97
2018-07-19T23:56:47.277Z,51.66
2018-07-19T23:59:16.833Z,51.18
